Terminal Aerodrome Forecast
Issued by NWS

Home | Current Version | Previous Version | Text Only | Print | Product List | Glossary On
Versions: 1 2 3 4 5 6 7 8 9 10 11 12 13 14 15 16 17 18 19 20 21 22 23 24 25 26 27 28 29 30 31 32 33 34 35 36 37 38 39 40 41 42 43 44
000
FTAK31 PAFA 240759 AAA
TAFAQT
TAF AMD
PAQT 240759Z 2408/2506 10011KT 1/4SM FG OVC002
      TEMPO 2408/2411 1SM BR SCT002 BKN007
     FM241100 08007KT 2SM BR OVC007
     FM241800 10006KT 6SM BR OVC015
     FM242000 10008KT P6SM BKN050=

USA.gov is the U.S. government's official web portal to all federal, state and local government web resources and services.